• Join FlightAware (Why Join?)
  • Login
  • US Flag 
01:40AM EDT


 

Airport Tracker/Info


-or-


 

Live Flight TrackerFlight Track Log ✈ N6ZQ ✈ 22-Apr-2014 ✈ VA42 - 4R9

Flight Track Log - Related Links

Times and Time Zones

All times are in EDT time to prevent confusion due to time zone crossing. See the N6ZQ flight status page for this flight to view local times or setup timezone preferences in your user account.

Time Position Orientation Groundspeed Altitude Reporting Facility
EDT Latitude Longitude Course Direction KTS MPH feet Rate Location/Type
07:10AM 38.3667 -77.4167 123° Southeast 117 135 1,000  Level Potomac TRACON
07:11AM 38.3500 -77.3833 123° Southeast 155 178 2,000 1,080 Climbing Potomac TRACON
07:12AM 38.3167 -77.3833 180° South 143 165 3,100 1,140 Climbing Potomac TRACON
07:13AM 38.3000 -77.4333 247° West 135 155 4,300 1,020 Climbing Potomac TRACON
07:15AM 38.2814 -77.4908 248° West 145 167 5,500 900 Climbing Washington Center
07:16AM 38.2639 -77.5381 245° Southwest 150 173 6,500 900 Climbing Washington Center
07:17AM 38.2483 -77.5878 248° West 155 178 7,400 840 Climbing Washington Center
07:18AM 38.2267 -77.6350 240° Southwest 155 178 8,200 780 Climbing Washington Center
07:19AM 38.2072 -77.6819 242° Southwest 155 178 9,100 900 Climbing Washington Center
07:20AM 38.1875 -77.7289 242° Southwest 155 178 10,000 480 Climbing Washington Center
07:21AM 38.1658 -77.7786 241° Southwest 155 178 10,100  Climbing Washington Center
07:22AM 38.1419 -77.8358 242° Southwest 167 192 10,100  Level Washington Center
07:23AM 38.1200 -77.8933 244° Southwest 177 204 10,100  Level Washington Center
07:24AM 38.0958 -77.9533 243° Southwest 187 215 10,100  Level Washington Center
07:25AM 38.0739 -78.0106 244° Southwest 187 215 10,100  Level Washington Center
07:26AM 38.0497 -78.0653 241° Southwest 182 209 10,100  Level Washington Center
07:27AM 38.0278 -78.1250 245° Southwest 182 209 10,100  Level Washington Center
07:28AM 37.9953 -78.1767 231° Southwest 175 201 10,100  Level Washington Center
07:29AM 37.9669 -78.2283 235° Southwest 180 207 10,100  Level Washington Center
07:30AM 37.9347 -78.2772 230° Southwest 185 213 10,100  Level Washington Center
07:31AM 37.9003 -78.3233 227° Southwest 185 213 10,100  Level Washington Center
07:32AM 37.8700 -78.3644 227° Southwest 185 213 10,100  Level Washington Center
07:33AM 37.8378 -78.4106 229° Southwest 185 213 10,100  Level Washington Center
07:34AM 37.8053 -78.4594 230° Southwest 185 213 10,100  Level Washington Center
07:35AM 37.7728 -78.5081 230° Southwest 185 213 10,100  Level Washington Center
07:36AM 37.7361 -78.5592 228° Southwest 185 213 10,100  Level Washington Center
07:37AM 37.7036 -78.6050 228° Southwest 185 213 10,100  Level Washington Center
07:38AM 37.6692 -78.6508 226° Southwest 185 213 10,100  Level Washington Center
07:39AM 37.6389 -78.6969 230° Southwest 185 213 10,100  Level Washington Center
07:40AM 37.6083 -78.7403 228° Southwest 185 213 10,100  Level Washington Center
07:41AM 37.5758 -78.7861 228° Southwest 185 213 10,100  Level Washington Center
07:42AM 37.5414 -78.8317 226° Southwest 185 213 10,100  Level Washington Center
07:43AM 37.5086 -78.8800 229° Southwest 185 213 10,100  Level Washington Center
07:44AM 37.4739 -78.9308 229° Southwest 185 213 10,100  Level Washington Center
07:45AM 37.4392 -78.9792 228° Southwest 185 213 10,100  Level Washington Center
07:46AM 37.4067 -79.0247 228° Southwest 185 213 10,100  Level Washington Center
07:47AM 37.3719 -79.0728 228° Southwest 185 213 10,100  Level Washington Center
07:48AM 37.3392 -79.1183 228° Southwest 185 213 10,100  Level Washington Center
07:48AM 37.2964 -79.1608 218° Southwest 180 207 10,100  Level Washington Center
07:49AM 37.3044 -79.1664 331° Northwest 185 213 10,100  Level Washington Center
07:50AM 37.2739 -79.2094 228° Southwest 185 213 10,100  Level Washington Center
07:51AM 37.2411 -79.2572 229° Southwest 185 213 10,100 -60 Level Washington Center
07:52AM 37.2083 -79.3053 229° Southwest 185 213 10,000 -60 Descending Washington Center
07:52AM 37.1653 -79.3553 223° Southwest 185 213 10,000  Level Washington Center
07:53AM 37.1711 -79.3608 323° Northwest 185 213 10,000  Level Washington Center
07:54AM 37.1383 -79.4114 231° Southwest 185 213 10,000  Level Washington Center
07:55AM 37.1033 -79.4592 227° Southwest 185 213 10,000  Level Washington Center
07:56AM 37.0706 -79.5094 231° Southwest 185 213 10,000  Level Washington Center
07:56AM 37.0378 -79.5547 228° Southwest 186 214 10,000  Level Washington Center
07:58AM 37.0069 -79.6025 231° Southwest 185 213 10,000  Level Washington Center
08:00AM 36.9058 -79.7556 227° Southwest 187 215 10,000  Level Washington Center
08:13AM 36.4928 -80.3486 228° Southwest 185 213 10,000  Level Atlanta Center
08:14AM 36.4693 -80.3567 228° Southwest  Level FlightAware Approximate
08:14AM 36.4608 -80.3939 229° Southwest 185 213 10,000  Level Atlanta Center
08:15AM 36.4362 -80.4032 228° Southwest  Level FlightAware Approximate
08:15AM 36.4225 -80.4394 224° Southwest 185 213 10,000  Level Atlanta Center
08:16AM 36.4030 -80.4496 228° Southwest  Level FlightAware Approximate
08:16AM 36.3908 -80.4925 233° Southwest 185 213 10,000  Level Atlanta Center
08:17AM 36.3699 -80.4959 228° Southwest  Level FlightAware Approximate
08:17AM 36.3567 -80.5403 228° Southwest 185 213 10,000  Level Atlanta Center
08:18AM 36.3289 -80.5853 233° Southwest 185 213 10,000  Level Atlanta Center
08:19AM 36.2947 -80.6333 229° Southwest 185 213 10,000  Level Atlanta Center
08:20AM 36.2669 -80.6858 237° Southwest 190 219 10,000  Level Atlanta Center
08:21AM 36.2392 -80.7411 238° Southwest 190 219 10,000  Level Atlanta Center
08:22AM 36.2114 -80.7911 235° Southwest 190 219 10,000  Level Atlanta Center
08:23AM 36.1817 -80.8464 236° Southwest 195 224 10,000  Level Atlanta Center
08:24AM 36.1539 -80.9014 238° Southwest 195 224 10,000  Level Atlanta Center
08:25AM 36.1239 -80.9567 236° Southwest 195 224 10,000  Level Atlanta Center
08:26AM 36.0939 -81.0142 237° Southwest 195 224 10,000  Level Atlanta Center
08:27AM 36.0639 -81.0669 235° Southwest 195 224 10,000  Level Atlanta Center
08:28AM 36.0361 -81.1217 238° Southwest 195 224 10,000  Level Atlanta Center
08:29AM 36.0083 -81.1767 238° Southwest 195 224 10,000  Level Atlanta Center
08:30AM 35.9761 -81.2292 233° Southwest 195 224 10,000  Level Atlanta Center
08:31AM 35.9481 -81.2864 239° Southwest 195 224 10,000  Level Atlanta Center
08:32AM 35.9181 -81.3414 236° Southwest 195 224 10,000  Level Atlanta Center
08:33AM 35.8900 -81.3961 238° Southwest 195 224 10,000  Level Atlanta Center
08:34AM 35.8600 -81.4508 236° Southwest 195 224 10,000  Level Atlanta Center
08:35AM 35.8319 -81.5056 238° Southwest 195 224 10,000  Level Atlanta Center
08:36AM 35.8017 -81.5578 234° Southwest 195 224 10,000  Level Atlanta Center
08:37AM 35.7714 -81.6097 234° Southwest 195 224 10,100  Climbing Atlanta Center
08:38AM 35.7433 -81.6669 239° Southwest 195 224 10,100  Level Atlanta Center
08:39AM 35.7131 -81.7214 236° Southwest 195 224 10,100 -60 Level Atlanta Center
08:40AM 35.6828 -81.7761 236° Southwest 195 224 10,000 -60 Descending Atlanta Center
08:41AM 35.6525 -81.8306 236° Southwest 195 224 10,000  Level Atlanta Center
08:42AM 35.6200 -81.8850 234° Southwest 195 224 10,000  Level Atlanta Center
08:43AM 35.5897 -81.9394 236° Southwest 195 224 10,000  Level Atlanta Center
08:44AM 35.5594 -81.9939 236° Southwest 200 230 10,000  Level Atlanta Center
08:45AM 35.5311 -82.0508 239° Southwest 200 230 10,000  Level Atlanta Center
08:46AM 35.4986 -82.1078 235° Southwest 200 230 10,000  Level Atlanta Center
08:47AM 35.4681 -82.1619 235° Southwest 200 230 10,000  Level Atlanta Center
08:48AM 35.4397 -82.2161 237° Southwest 200 230 10,000  Level Atlanta Center
08:49AM 35.4072 -82.2728 235° Southwest 200 230 10,000  Level Atlanta Center
08:50AM 35.3725 -82.3247 231° Southwest 200 230 10,000  Level Atlanta Center
08:58AM 35.1100 -82.7008 229° Southwest 201 231 10,000  Level Atlanta Center
08:59AM 35.0865 -82.7204 231° Southwest  Level FlightAware Approximate
08:59AM 35.0711 -82.7572 230° Southwest 201 231 10,000  Level Atlanta Center
09:00AM 35.0539 -82.7679 229° Southwest  Level FlightAware Approximate
09:00AM 35.0339 -82.8086 229° Southwest 201 231 10,000  Level Atlanta Center
09:01AM 35.0206 -82.8145 229° Southwest  Level FlightAware Approximate
09:01AM 35.0011 -82.8597 232° Southwest 201 231 10,100  Level Atlanta Center
09:02AM 34.9873 -82.8612 229° Southwest  Level FlightAware Approximate
09:02AM 34.9642 -82.9133 230° Southwest 201 231 10,100  Level Atlanta Center
09:03AM 34.9331 -82.9569 229° Southwest 201 231 10,100  Level Atlanta Center
09:04AM 34.8939 -83.0081 227° Southwest 196 226 10,100  Level Atlanta Center
09:05AM 34.8567 -83.0542 225° Southwest 203 234 10,100  Level Atlanta Center
09:06AM 34.8217 -83.1053 230° Southwest 198 228 10,100  Level Atlanta Center
09:07AM 34.7844 -83.1536 227° Southwest 198 228 10,100  Level Atlanta Center
09:08AM 34.7725 -83.2119 256° West 193 222 10,100  Level Atlanta Center
09:09AM 34.7581 -83.2778 255° West 194 223 10,100  Level Atlanta Center
09:10AM 34.7439 -83.3411 255° West 194 223 10,100  Level Atlanta Center
09:11AM 34.7317 -83.4044 257° West 199 229 10,100  Level Atlanta Center
09:12AM 34.7175 -83.4703 255° West 199 229 10,100  Level Atlanta Center
09:13AM 34.7031 -83.5308 254° West 199 229 10,100  Level Atlanta Center
09:14AM 34.6889 -83.5917 254° West 199 229 10,100  Level Atlanta Center
09:15AM 34.6744 -83.6547 254° West 199 229 10,100  Level Atlanta Center
09:16AM 34.6619 -83.7181 257° West 199 229 10,100  Level Atlanta Center
09:17AM 34.6475 -83.7786 254° West 199 229 10,100  Level Atlanta Center
09:18AM 34.6331 -83.8394 254° West 192 221 10,100  Level Atlanta Center
09:19AM 34.6228 -83.8950 257° West 186 214 10,100 -60 Level Atlanta Center
09:20AM 34.6081 -83.9531 253° West 180 207 10,000 -60 Descending Atlanta Center
09:21AM 34.5936 -84.0161 254° West 185 213 10,000  Level Atlanta Center
09:22AM 34.5789 -84.0717 252° West 179 206 10,000  Level Atlanta Center
09:23AM 34.5664 -84.1322 256° West 185 213 10,000  Level Atlanta Center
09:24AM 34.5539 -84.1900 255° West 185 213 10,000  Level Atlanta Center
09:25AM 34.5392 -84.2506 254° West 185 213 10,000  Level Atlanta Center
09:26AM 34.5244 -84.3136 254° West 180 207 10,000  Level Atlanta Center
09:27AM 34.5117 -84.3689 254° West 185 213 10,000  Level Atlanta Center
09:28AM 34.4969 -84.4269 253° West 179 206 10,000  Level Atlanta Center
09:29AM 34.4739 -84.4772 241° Southwest 179 206 10,000  Level Atlanta Center
09:30AM 34.4486 -84.5275 239° Southwest 173 199 10,000  Level Atlanta Center
09:31AM 34.4233 -84.5778 239° Southwest 173 199 10,000  Level Atlanta Center
09:32AM 34.4003 -84.6278 241° Southwest 178 205 10,000  Level Atlanta Center
09:33AM 34.3769 -84.6781 241° Southwest 178 205 10,000  Level Atlanta Center
09:34AM 34.3539 -84.7258 240° Southwest 178 205 10,000  Level Atlanta Center
09:35AM 34.3306 -84.7758 241° Southwest 178 205 10,000  Level Atlanta Center
09:36AM 34.3072 -84.8258 241° Southwest 178 205 10,000  Level Atlanta Center
09:37AM 34.2861 -84.8708 240° Southwest 178 205 10,000  Level Atlanta Center
09:38AM 34.2628 -84.9211 241° Southwest 178 205 10,000  Level Atlanta Center
09:39AM 34.2375 -84.9686 237° Southwest 178 205 10,000  Level Atlanta Center
09:40AM 34.2142 -85.0211 242° Southwest 178 205 10,000  Level Atlanta Center
09:41AM 34.1906 -85.0708 240° Southwest 178 205 10,000  Level Atlanta Center
09:42AM 34.1653 -85.1183 237° Southwest 178 205 10,000  Level Atlanta Center
09:43AM 34.1272 -85.1556 219° Southwest 173 199 10,000  Level Atlanta Center
09:44AM 34.0792 -85.1750 199° South 173 199 10,000  Level Atlanta Center
09:45AM 34.0350 -85.2019 207° Southwest 179 206 10,000  Level Atlanta Center
09:46AM 33.9867 -85.2314 207° Southwest 179 206 10,000  Level Atlanta Center
09:47AM 33.9428 -85.2583 207° Southwest 179 206 10,000  Level Atlanta Center
09:48AM 33.8964 -85.2850 206° Southwest 179 206 10,000  Level Atlanta Center
09:49AM 33.8525 -85.3119 207° Southwest 179 206 10,000  Level Atlanta Center
09:50AM 33.8103 -85.3389 208° Southwest 179 206 10,000  Level Atlanta Center
09:51AM 33.7661 -85.3681 209° Southwest 179 206 10,000  Level Atlanta Center
09:52AM 33.7219 -85.3975 209° Southwest 179 206 10,000  Level Atlanta Center
09:53AM 33.6781 -85.4242 207° Southwest 179 206 10,000  Level Atlanta Center
09:54AM 33.6339 -85.4508 207° Southwest 179 206 10,000  Level Atlanta Center
09:55AM 33.5875 -85.4803 208° Southwest 179 206 10,000  Level Atlanta Center
09:56AM 33.5433 -85.5069 207° Southwest 179 206 10,000  Level Atlanta Center
09:57AM 33.5056 -85.5311 208° Southwest 179 206 10,000  Level Atlanta Center
09:58AM 33.4614 -85.5578 207° Southwest 179 206 10,000  Level Atlanta Center
09:59AM 33.4192 -85.5844 208° Southwest 179 206 10,000  Level Atlanta Center
10:00AM 33.3731 -85.6133 208° Southwest 179 206 10,000  Level Atlanta Center
10:01AM 33.3267 -85.6450 210° Southwest 179 206 10,000  Level Atlanta Center
10:02AM 33.2825 -85.6664 202° Southwest 184 212 10,000  Level Atlanta Center
10:03AM 33.2258 -85.7025 208° Southwest 196 226 10,000  Level Atlanta Center
10:04AM 33.1794 -85.7314 208° Southwest 196 226 10,000  Level Atlanta Center
10:05AM 33.1311 -85.7603 207° Southwest 196 226 10,000  Level Atlanta Center
10:05AM 33.0767 -85.7717 190° South 189 217 10,000  Level Atlanta Center
10:07AM 33.0383 -85.8181 225° Southwest 196 226 10,000  Level Atlanta Center
10:08AM 32.9942 -85.8467 209° Southwest 196 226 10,000  Level Atlanta Center
10:09AM 32.9478 -85.8756 208° Southwest 196 226 10,000  Level Atlanta Center
10:09AM 32.8933 -85.8917 194° South 188 216 10,000  Level Atlanta Center
10:11AM 32.8531 -85.9328 221° Southwest 196 226 10,000  Level Atlanta Center
10:12AM 32.8067 -85.9617 208° Southwest 196 226 10,000  Level Atlanta Center
10:13AM 32.7581 -85.9925 208° Southwest 196 226 10,000  Level Atlanta Center
10:13AM 32.7056 -86.0136 199° South 196 226 10,000  Level Atlanta Center
10:15AM 32.6633 -86.0522 218° Southwest 201 231 10,000  Level Atlanta Center
10:17AM 32.5325 -86.1231 205° Southwest 199 229 10,000  Level Atlanta Center
10:21AM 32.3364 -86.2464 229° Southwest 206 237 10,000  Level Atlanta Center
10:25AM 32.1625 -86.3917 234° Southwest 192 221 10,000  Level Atlanta Center
10:26AM 32.1739 -86.3738 229° Southwest  Level FlightAware Approximate
10:26AM 32.1494 -86.4183 240° Southwest 193 222 10,000  Level Atlanta Center
10:27AM 32.1108 -86.4689 228° Southwest 192 221 10,000  Level Atlanta Center
10:28AM 32.0808 -86.5147 232° Southwest 192 221 10,000  Level Atlanta Center
10:29AM 32.0464 -86.5603 228° Southwest 192 221 10,000  Level Atlanta Center
10:30AM 32.0080 -86.5546 229° Southwest  Level Estimated
10:30AM 32.0142 -86.6058 230° Southwest 176 203 10,000  Level Atlanta Center
10:31AM 31.9686 -86.5909 234° Southwest  Level Estimated
10:31AM 31.9800 -86.6514 229° Southwest 183 211 10,000  Level Atlanta Center
10:32AM 31.9475 -86.6969 230° Southwest 183 211 10,000  Level Atlanta Center
10:33AM 31.9133 -86.7400 227° Southwest 188 216 10,000  Level Atlanta Center
10:34AM 31.8808 -86.7878 231° Southwest 188 216 10,000  Level Atlanta Center
10:35AM 31.8464 -86.8333 228° Southwest 188 216 10,000  Level Atlanta Center
10:36AM 31.8122 -86.8786 228° Southwest 188 216 10,000  Level Atlanta Center
10:37AM 31.7797 -86.9217 228° Southwest 188 216 10,000  Level Atlanta Center
10:38AM 31.7453 -86.9694 230° Southwest 188 216 10,000  Level Atlanta Center
10:39AM 31.7131 -87.0122 228° Southwest 188 216 10,000  Level Atlanta Center
10:40AM 31.6847 -87.0578 234° Southwest 188 216 10,000  Level Atlanta Center
10:41AM 31.6544 -87.1031 232° Southwest 188 216 10,000  Level Atlanta Center
10:42AM 31.6178 -87.1481 226° Southwest 188 216 10,000  Level Atlanta Center
10:43AM 31.5853 -87.1933 230° Southwest 188 216 10,000  Level Atlanta Center
10:44AM 31.5489 -87.2358 225° Southwest 188 216 10,000 60 Level Atlanta Center
10:44AM 31.5283 -87.2581 223° Southwest 183 211 10,100 60 Climbing Houston Center
10:45AM 31.4950 -87.3025 229° Southwest 183 211 10,100  Level Houston Center
10:46AM 31.4611 -87.3475 229° Southwest 183 211 10,100 -60 Level Houston Center
10:47AM 31.4200 -87.3850 218° Southwest 183 211 10,000 -60 Descending Houston Center
10:48AM 31.3681 -87.4281 215° Southwest 186 214 10,000  Level Houston Center
10:49AM 31.3256 -87.4647 216° Southwest 188 216 10,000  Level Houston Center
10:51AM 31.2833 -87.4981 214° Southwest 188 216 10,000  Level Houston Center
10:52AM 31.2414 -87.5344 217° Southwest 187 215 10,000  Level Houston Center
10:53AM 31.1992 -87.5703 216° Southwest 187 215 10,000  Level Houston Center
10:54AM 31.1561 -87.6053 215° Southwest 187 215 10,000  Level Houston Center
10:55AM 31.1047 -87.6492 216° Southwest 187 215 10,000 -240 Level Houston Center
10:56AM 31.0608 -87.6864 216° Southwest 191 220 9,600 -540 Descending Houston Center
10:57AM 31.0142 -87.7256 216° Southwest 203 234 9,000 -540 Descending Houston Center
10:58AM 30.9667 -87.7636 214° Southwest 203 234 8,600 -480 Descending Houston Center
10:59AM 30.9200 -87.8019 215° Southwest 205 236 8,100 -360 Descending Houston Center
11:00AM 30.8747 -87.8392 215° Southwest 202 232 7,900 -540 Descending Houston Center
11:01AM 30.8197 -87.8858 216° Southwest 202 232 7,100 -660 Descending Houston Center
11:02AM 30.7717 -87.9247 215° Southwest 204 235 6,600 -600 Descending Houston Center
11:03AM 30.7253 -87.9647 217° Southwest 205 236 5,900 -720 Descending Houston Center
11:04AM 30.6783 -88.0025 215° Southwest 205 236 5,200 -660 Descending Houston Center
11:05AM 30.6325 -88.0403 215° Southwest 205 236 4,600 -540 Descending Houston Center
11:06AM 30.5814 -88.0611 199° South 204 235 4,100 -540 Descending Houston Center
11:07AM 30.5175 -88.0733 189° South 198 228 3,600 -540 Descending Houston Center
11:08AM 30.4656 -88.0850 191° South 195 224 3,100 -540 Descending Houston Center
11:09AM 30.4139 -88.0956 190° South 193 222 2,600 -540 Descending Houston Center